sensor_id;sensor_type;location;lat;lon;timestamp;P1;P2;P0
12542;PMS3003;6337;49.556;25.594;2023-12-20T00:02:18;8.57;5.40;
12542;PMS3003;6337;49.556;25.594;2023-12-20T00:04:48;10.33;4.90;
12542;PMS3003;6337;49.556;25.594;2023-12-20T00:07:19;10.27;5.00;
12542;PMS3003;6337;49.556;25.594;2023-12-20T00:09:48;17.40;8.27;
12542;PMS3003;6337;49.556;25.594;2023-12-20T00:12:15;16.10;7.37;
12542;PMS3003;6337;49.556;25.594;2023-12-20T00:17:44;8.50;7.43;
12542;PMS3003;6337;49.556;25.594;2023-12-20T00:20:26;28.63;7.30;
12542;PMS3003;6337;49.556;25.594;2023-12-20T00:22:55;10.50;6.70;
12542;PMS3003;6337;49.556;25.594;2023-12-20T00:25:36;6.37;5.70;
12542;PMS3003;6337;49.556;25.594;2023-12-20T00:28:07;6.50;5.07;
12542;PMS3003;6337;49.556;25.594;2023-12-20T00:33:27;6.27;4.80;
12542;PMS3003;6337;49.556;25.594;2023-12-20T00:35:57;7.43;5.30;
12542;PMS3003;6337;49.556;25.594;2023-12-20T00:38:39;7.97;6.17;
12542;PMS3003;6337;49.556;25.594;2023-12-20T00:41:06;9.93;6.20;
12542;PMS3003;6337;49.556;25.594;2023-12-20T00:43:35;6.87;4.07;
12542;PMS3003;6337;49.556;25.594;2023-12-20T00:46:08;7.27;3.80;
12542;PMS3003;6337;49.556;25.594;2023-12-20T00:48:40;7.40;4.57;
12542;PMS3003;6337;49.556;25.594;2023-12-20T00:51:11;5.47;3.63;
12542;PMS3003;6337;49.556;25.594;2023-12-20T00:53:39;3.90;3.07;
12542;PMS3003;6337;49.556;25.594;2023-12-20T00:56:12;7.50;5.50;
12542;PMS3003;6337;49.556;25.594;2023-12-20T01:01:58;11.90;6.33;
12542;PMS3003;6337;49.556;25.594;2023-12-20T01:04:28;10.50;5.63;
12542;PMS3003;6337;49.556;25.594;2023-12-20T01:09:48;6.80;5.20;
12542;PMS3003;6337;49.556;25.594;2023-12-20T01:15:15;6.60;4.97;
12542;PMS3003;6337;49.556;25.594;2023-12-20T01:17:45;10.70;5.73;
12542;PMS3003;6337;49.556;25.594;2023-12-20T01:20:13;6.67;5.20;
12542;PMS3003;6337;49.556;25.594;2023-12-20T01:22:45;6.47;4.60;
12542;PMS3003;6337;49.556;25.594;2023-12-20T01:25:18;4.93;3.87;
12542;PMS3003;6337;49.556;25.594;2023-12-20T01:27:45;4.97;4.53;
12542;PMS3003;6337;49.556;25.594;2023-12-20T01:30:13;5.93;3.93;
12542;PMS3003;6337;49.556;25.594;2023-12-20T01:32:47;3.63;2.70;
12542;PMS3003;6337;49.556;25.594;2023-12-20T01:35:16;3.97;3.50;
12542;PMS3003;6337;49.556;25.594;2023-12-20T01:37:48;6.83;3.80;
12542;PMS3003;6337;49.556;25.594;2023-12-20T01:40:43;5.40;4.03;
12542;PMS3003;6337;49.556;25.594;2023-12-20T01:43:14;4.77;3.37;
12542;PMS3003;6337;49.556;25.594;2023-12-20T01:45:42;3.73;3.10;
12542;PMS3003;6337;49.556;25.594;2023-12-20T01:48:11;3.17;2.97;
12542;PMS3003;6337;49.556;25.594;2023-12-20T01:50:40;3.63;3.33;
12542;PMS3003;6337;49.556;25.594;2023-12-20T01:53:09;6.97;3.60;
12542;PMS3003;6337;49.556;25.594;2023-12-20T01:55:40;5.60;3.70;
12542;PMS3003;6337;49.556;25.594;2023-12-20T01:58:08;7.27;4.27;
12542;PMS3003;6337;49.556;25.594;2023-12-20T02:00:37;6.80;5.10;
12542;PMS3003;6337;49.556;25.594;2023-12-20T02:03:05;7.13;5.00;
12542;PMS3003;6337;49.556;25.594;2023-12-20T02:05:43;4.37;3.87;
12542;PMS3003;6337;49.556;25.594;2023-12-20T02:08:11;9.00;5.10;
12542;PMS3003;6337;49.556;25.594;2023-12-20T02:10:39;5.27;4.77;
12542;PMS3003;6337;49.556;25.594;2023-12-20T02:13:10;4.73;3.97;
12542;PMS3003;6337;49.556;25.594;2023-12-20T02:15:37;4.43;3.90;
12542;PMS3003;6337;49.556;25.594;2023-12-20T02:18:06;4.27;3.10;
12542;PMS3003;6337;49.556;25.594;2023-12-20T02:20:36;6.50;3.77;
12542;PMS3003;6337;49.556;25.594;2023-12-20T02:23:05;7.83;4.07;
12542;PMS3003;6337;49.556;25.594;2023-12-20T02:25:32;4.07;3.53;
12542;PMS3003;6337;49.556;25.594;2023-12-20T02:28:00;5.23;4.27;
12542;PMS3003;6337;49.556;25.594;2023-12-20T02:30:28;4.00;3.50;
12542;PMS3003;6337;49.556;25.594;2023-12-20T02:32:55;5.20;4.27;
12542;PMS3003;6337;49.556;25.594;2023-12-20T02:35:24;6.53;4.57;
12542;PMS3003;6337;49.556;25.594;2023-12-20T02:37:52;3.83;3.40;
12542;PMS3003;6337;49.556;25.594;2023-12-20T02:40:22;5.70;4.07;
12542;PMS3003;6337;49.556;25.594;2023-12-20T02:42:54;7.63;5.57;
12542;PMS3003;6337;49.556;25.594;2023-12-20T02:45:22;5.90;5.20;
12542;PMS3003;6337;49.556;25.594;2023-12-20T02:47:50;12.03;6.93;
12542;PMS3003;6337;49.556;25.594;2023-12-20T02:50:17;11.40;8.20;
12542;PMS3003;6337;49.556;25.594;2023-12-20T02:52:47;9.63;6.87;
12542;PMS3003;6337;49.556;25.594;2023-12-20T02:55:16;12.47;6.90;
12542;PMS3003;6337;49.556;25.594;2023-12-20T02:57:47;8.57;6.47;
12542;PMS3003;6337;49.556;25.594;2023-12-20T03:00:16;12.90;7.70;
12542;PMS3003;6337;49.556;25.594;2023-12-20T03:02:45;9.90;7.17;
12542;PMS3003;6337;49.556;25.594;2023-12-20T03:05:13;12.27;8.73;
12542;PMS3003;6337;49.556;25.594;2023-12-20T03:07:42;13.00;9.60;
12542;PMS3003;6337;49.556;25.594;2023-12-20T03:10:10;8.27;6.40;
12542;PMS3003;6337;49.556;25.594;2023-12-20T03:12:42;11.53;7.13;
12542;PMS3003;6337;49.556;25.594;2023-12-20T03:17:59;12.53;8.17;
12542;PMS3003;6337;49.556;25.594;2023-12-20T03:20:27;13.07;6.10;
12542;PMS3003;6337;49.556;25.594;2023-12-20T03:22:57;14.73;7.57;
12542;PMS3003;6337;49.556;25.594;2023-12-20T03:25:25;17.23;11.27;
12542;PMS3003;6337;49.556;25.594;2023-12-20T03:27:52;13.17;11.87;
12542;PMS3003;6337;49.556;25.594;2023-12-20T03:30:20;11.30;8.73;
12542;PMS3003;6337;49.556;25.594;2023-12-20T03:32:55;11.83;8.80;
12542;PMS3003;6337;49.556;25.594;2023-12-20T03:35:26;18.60;11.40;
12542;PMS3003;6337;49.556;25.594;2023-12-20T03:38:12;24.53;12.07;
12542;PMS3003;6337;49.556;25.594;2023-12-20T03:40:40;16.17;10.27;
12542;PMS3003;6337;49.556;25.594;2023-12-20T03:43:15;9.97;7.77;
12542;PMS3003;6337;49.556;25.594;2023-12-20T03:46:01;8.00;6.53;
12542;PMS3003;6337;49.556;25.594;2023-12-20T03:48:30;8.93;6.70;
12542;PMS3003;6337;49.556;25.594;2023-12-20T03:51:03;11.00;6.83;
12542;PMS3003;6337;49.556;25.594;2023-12-20T03:53:37;11.90;6.60;
12542;PMS3003;6337;49.556;25.594;2023-12-20T03:58:59;13.40;6.47;
12542;PMS3003;6337;49.556;25.594;2023-12-20T04:01:28;11.93;6.67;
12542;PMS3003;6337;49.556;25.594;2023-12-20T04:04:07;8.30;5.73;
12542;PMS3003;6337;49.556;25.594;2023-12-20T04:06:36;10.67;4.83;
12542;PMS3003;6337;49.556;25.594;2023-12-20T04:09:06;7.03;6.30;
12542;PMS3003;6337;49.556;25.594;2023-12-20T04:11:39;11.63;5.63;
12542;PMS3003;6337;49.556;25.594;2023-12-20T04:17:03;8.00;6.10;
12542;PMS3003;6337;49.556;25.594;2023-12-20T04:19:39;11.53;5.80;
12542;PMS3003;6337;49.556;25.594;2023-12-20T04:22:37;8.30;5.70;
12542;PMS3003;6337;49.556;25.594;2023-12-20T04:25:08;8.60;5.43;
12542;PMS3003;6337;49.556;25.594;2023-12-20T04:27:38;11.40;6.17;
12542;PMS3003;6337;49.556;25.594;2023-12-20T04:30:11;7.40;5.73;
12542;PMS3003;6337;49.556;25.594;2023-12-20T04:32:49;8.63;6.90;
12542;PMS3003;6337;49.556;25.594;2023-12-20T04:35:18;32.80;12.87;
12542;PMS3003;6337;49.556;25.594;2023-12-20T04:40:46;113.87;37.27;
12542;PMS3003;6337;49.556;25.594;2023-12-20T04:43:14;102.47;39.63;
12542;PMS3003;6337;49.556;25.594;2023-12-20T04:45:44;86.67;33.43;
12542;PMS3003;6337;49.556;25.594;2023-12-20T04:48:16;34.57;17.10;
12542;PMS3003;6337;49.556;25.594;2023-12-20T04:50:45;37.90;18.17;
12542;PMS3003;6337;49.556;25.594;2023-12-20T04:53:14;19.57;11.40;
12542;PMS3003;6337;49.556;25.594;2023-12-20T05:15:21;17.87;8.23;
12542;PMS3003;6337;49.556;25.594;2023-12-20T05:17:49;12.83;8.97;
12542;PMS3003;6337;49.556;25.594;2023-12-20T05:20:21;15.27;8.57;
12542;PMS3003;6337;49.556;25.594;2023-12-20T05:23:01;19.37;9.30;
12542;PMS3003;6337;49.556;25.594;2023-12-20T05:25:47;13.27;8.33;
12542;PMS3003;6337;49.556;25.594;2023-12-20T05:28:43;16.40;8.83;
12542;PMS3003;6337;49.556;25.594;2023-12-20T05:40:39;11.70;9.70;
12542;PMS3003;6337;49.556;25.594;2023-12-20T05:43:08;17.40;11.40;
12542;PMS3003;6337;49.556;25.594;2023-12-20T05:45:36;20.63;12.70;
12542;PMS3003;6337;49.556;25.594;2023-12-20T05:48:05;21.90;13.40;
12542;PMS3003;6337;49.556;25.594;2023-12-20T05:50:35;24.67;13.63;
12542;PMS3003;6337;49.556;25.594;2023-12-20T05:55:49;23.57;12.60;
12542;PMS3003;6337;49.556;25.594;2023-12-20T05:58:19;23.20;11.67;
12542;PMS3003;6337;49.556;25.594;2023-12-20T06:00:52;18.57;11.37;
12542;PMS3003;6337;49.556;25.594;2023-12-20T06:04:16;30.53;12.67;
12542;PMS3003;6337;49.556;25.594;2023-12-20T06:26:48;52.97;32.90;
12542;PMS3003;6337;49.556;25.594;2023-12-20T06:29:16;37.50;20.73;
12542;PMS3003;6337;49.556;25.594;2023-12-20T06:34:35;26.17;15.83;
12542;PMS3003;6337;49.556;25.594;2023-12-20T06:37:07;20.90;12.67;
12542;PMS3003;6337;49.556;25.594;2023-12-20T06:39:52;19.00;13.20;
12542;PMS3003;6337;49.556;25.594;2023-12-20T06:42:24;22.70;14.00;
12542;PMS3003;6337;49.556;25.594;2023-12-20T06:45:01;20.07;13.37;
12542;PMS3003;6337;49.556;25.594;2023-12-20T06:47:32;38.43;20.70;
12542;PMS3003;6337;49.556;25.594;2023-12-20T06:50:04;42.00;21.70;
12542;PMS3003;6337;49.556;25.594;2023-12-20T06:52:47;36.20;21.17;
12542;PMS3003;6337;49.556;25.594;2023-12-20T06:55:14;41.90;21.13;
12542;PMS3003;6337;49.556;25.594;2023-12-20T06:57:45;41.17;21.13;
12542;PMS3003;6337;49.556;25.594;2023-12-20T07:00:33;42.30;22.57;
12542;PMS3003;6337;49.556;25.594;2023-12-20T07:07:18;46.30;24.77;
12542;PMS3003;6337;49.556;25.594;2023-12-20T07:09:46;50.53;21.40;
12542;PMS3003;6337;49.556;25.594;2023-12-20T07:12:14;51.70;24.50;
12542;PMS3003;6337;49.556;25.594;2023-12-20T07:14:49;69.83;31.20;
12542;PMS3003;6337;49.556;25.594;2023-12-20T07:17:32;59.07;26.60;
12542;PMS3003;6337;49.556;25.594;2023-12-20T07:20:34;55.10;22.27;
12542;PMS3003;6337;49.556;25.594;2023-12-20T07:23:03;51.60;24.03;
12542;PMS3003;6337;49.556;25.594;2023-12-20T07:25:35;48.00;22.73;
12542;PMS3003;6337;49.556;25.594;2023-12-20T07:28:03;49.97;22.07;
12542;PMS3003;6337;49.556;25.594;2023-12-20T07:30:35;29.97;18.10;
12542;PMS3003;6337;49.556;25.594;2023-12-20T07:33:04;17.77;10.90;
12542;PMS3003;6337;49.556;25.594;2023-12-20T07:35:37;37.00;14.03;
12542;PMS3003;6337;49.556;25.594;2023-12-20T07:38:05;21.50;14.00;
12542;PMS3003;6337;49.556;25.594;2023-12-20T07:40:35;26.67;15.03;
12542;PMS3003;6337;49.556;25.594;2023-12-20T07:43:12;35.77;15.57;
12542;PMS3003;6337;49.556;25.594;2023-12-20T07:48:45;36.07;15.47;
12542;PMS3003;6337;49.556;25.594;2023-12-20T07:51:12;23.70;14.80;
12542;PMS3003;6337;49.556;25.594;2023-12-20T07:53:40;49.20;18.43;
12542;PMS3003;6337;49.556;25.594;2023-12-20T07:56:15;36.93;16.67;
12542;PMS3003;6337;49.556;25.594;2023-12-20T07:58:43;32.53;17.07;
12542;PMS3003;6337;49.556;25.594;2023-12-20T08:01:12;21.77;12.90;
12542;PMS3003;6337;49.556;25.594;2023-12-20T08:03:40;39.97;18.23;
12542;PMS3003;6337;49.556;25.594;2023-12-20T08:06:07;20.03;11.80;
12542;PMS3003;6337;49.556;25.594;2023-12-20T08:08:38;30.20;16.20;
12542;PMS3003;6337;49.556;25.594;2023-12-20T08:11:05;18.70;9.60;
12542;PMS3003;6337;49.556;25.594;2023-12-20T08:13:37;16.10;9.80;
12542;PMS3003;6337;49.556;25.594;2023-12-20T08:16:07;18.47;11.27;
12542;PMS3003;6337;49.556;25.594;2023-12-20T08:18:41;19.57;9.10;
12542;PMS3003;6337;49.556;25.594;2023-12-20T08:21:08;13.83;8.40;
12542;PMS3003;6337;49.556;25.594;2023-12-20T08:23:36;7.43;6.60;
12542;PMS3003;6337;49.556;25.594;2023-12-20T08:26:05;10.97;6.50;
12542;PMS3003;6337;49.556;25.594;2023-12-20T08:28:32;7.93;5.60;
12542;PMS3003;6337;49.556;25.594;2023-12-20T08:31:00;7.70;4.67;
12542;PMS3003;6337;49.556;25.594;2023-12-20T08:33:27;4.67;4.23;
12542;PMS3003;6337;49.556;25.594;2023-12-20T08:35:56;5.90;4.13;
12542;PMS3003;6337;49.556;25.594;2023-12-20T08:38:24;5.60;4.40;
12542;PMS3003;6337;49.556;25.594;2023-12-20T08:40:52;6.77;3.93;
12542;PMS3003;6337;49.556;25.594;2023-12-20T08:43:19;5.20;4.40;
12542;PMS3003;6337;49.556;25.594;2023-12-20T08:45:48;6.00;4.20;
12542;PMS3003;6337;49.556;25.594;2023-12-20T08:48:15;4.43;4.03;
12542;PMS3003;6337;49.556;25.594;2023-12-20T08:50:42;9.23;5.27;
12542;PMS3003;6337;49.556;25.594;2023-12-20T08:53:14;8.10;4.07;
12542;PMS3003;6337;49.556;25.594;2023-12-20T08:55:43;10.67;3.50;
12542;PMS3003;6337;49.556;25.594;2023-12-20T08:58:11;16.53;3.70;
12542;PMS3003;6337;49.556;25.594;2023-12-20T09:00:39;5.00;4.20;
12542;PMS3003;6337;49.556;25.594;2023-12-20T09:03:07;7.17;4.07;
12542;PMS3003;6337;49.556;25.594;2023-12-20T09:05:41;11.03;5.00;
12542;PMS3003;6337;49.556;25.594;2023-12-20T09:08:09;10.73;3.80;
12542;PMS3003;6337;49.556;25.594;2023-12-20T09:10:41;7.33;4.10;
12542;PMS3003;6337;49.556;25.594;2023-12-20T09:13:10;4.13;3.10;
12542;PMS3003;6337;49.556;25.594;2023-12-20T09:15:38;7.27;4.50;
12542;PMS3003;6337;49.556;25.594;2023-12-20T09:18:05;5.10;3.00;
12542;PMS3003;6337;49.556;25.594;2023-12-20T09:20:33;5.93;3.97;
12542;PMS3003;6337;49.556;25.594;2023-12-20T09:23:02;13.00;4.63;
12542;PMS3003;6337;49.556;25.594;2023-12-20T09:25:40;4.73;3.20;
12542;PMS3003;6337;49.556;25.594;2023-12-20T09:28:07;6.07;3.73;
12542;PMS3003;6337;49.556;25.594;2023-12-20T09:30:35;5.30;3.70;
12542;PMS3003;6337;49.556;25.594;2023-12-20T09:33:05;3.20;2.67;
12542;PMS3003;6337;49.556;25.594;2023-12-20T09:35:37;7.13;3.70;
12542;PMS3003;6337;49.556;25.594;2023-12-20T09:38:05;6.07;3.13;
12542;PMS3003;6337;49.556;25.594;2023-12-20T09:40:32;5.77;3.17;
12542;PMS3003;6337;49.556;25.594;2023-12-20T09:43:08;3.40;3.00;
12542;PMS3003;6337;49.556;25.594;2023-12-20T09:45:38;7.47;4.00;
12542;PMS3003;6337;49.556;25.594;2023-12-20T09:48:06;3.90;3.03;
12542;PMS3003;6337;49.556;25.594;2023-12-20T09:50:34;13.37;4.00;
12542;PMS3003;6337;49.556;25.594;2023-12-20T09:53:02;5.30;4.60;
12542;PMS3003;6337;49.556;25.594;2023-12-20T09:55:34;5.10;4.60;
12542;PMS3003;6337;49.556;25.594;2023-12-20T09:58:03;7.37;4.17;
12542;PMS3003;6337;49.556;25.594;2023-12-20T10:00:37;5.90;3.07;
12542;PMS3003;6337;49.556;25.594;2023-12-20T10:03:06;5.77;3.97;
12542;PMS3003;6337;49.556;25.594;2023-12-20T10:05:34;10.13;4.30;
12542;PMS3003;6337;49.556;25.594;2023-12-20T10:08:01;11.43;4.20;
12542;PMS3003;6337;49.556;25.594;2023-12-20T10:10:32;4.30;3.77;
12542;PMS3003;6337;49.556;25.594;2023-12-20T10:13:03;5.60;4.97;
12542;PMS3003;6337;49.556;25.594;2023-12-20T10:15:36;6.23;4.43;
12542;PMS3003;6337;49.556;25.594;2023-12-20T10:18:07;5.80;3.77;
12542;PMS3003;6337;49.556;25.594;2023-12-20T10:20:34;9.23;4.40;
12542;PMS3003;6337;49.556;25.594;2023-12-20T10:23:01;5.13;3.03;
12542;PMS3003;6337;49.556;25.594;2023-12-20T10:25:29;4.20;3.80;
12542;PMS3003;6337;49.556;25.594;2023-12-20T10:30:44;10.37;3.83;
12542;PMS3003;6337;49.556;25.594;2023-12-20T10:33:11;3.80;2.90;
12542;PMS3003;6337;49.556;25.594;2023-12-20T10:35:42;5.67;5.17;
12542;PMS3003;6337;49.556;25.594;2023-12-20T10:38:11;4.97;3.60;
12542;PMS3003;6337;49.556;25.594;2023-12-20T10:40:38;3.90;3.13;
12542;PMS3003;6337;49.556;25.594;2023-12-20T10:43:06;3.47;3.17;
12542;PMS3003;6337;49.556;25.594;2023-12-20T10:45:36;6.80;2.53;
12542;PMS3003;6337;49.556;25.594;2023-12-20T10:48:06;4.30;3.07;
12542;PMS3003;6337;49.556;25.594;2023-12-20T10:50:34;4.40;3.30;
12542;PMS3003;6337;49.556;25.594;2023-12-20T10:53:05;6.63;5.93;
12542;PMS3003;6337;49.556;25.594;2023-12-20T10:55:33;9.50;3.30;
12542;PMS3003;6337;49.556;25.594;2023-12-20T10:58:01;4.83;3.30;
12542;PMS3003;6337;49.556;25.594;2023-12-20T11:00:30;2.93;2.50;
12542;PMS3003;6337;49.556;25.594;2023-12-20T11:03:00;3.60;3.13;
12542;PMS3003;6337;49.556;25.594;2023-12-20T11:05:30;3.30;2.50;
12542;PMS3003;6337;49.556;25.594;2023-12-20T11:08:03;6.57;3.07;
12542;PMS3003;6337;49.556;25.594;2023-12-20T11:10:37;3.83;2.90;
12542;PMS3003;6337;49.556;25.594;2023-12-20T11:13:16;6.73;3.10;
12542;PMS3003;6337;49.556;25.594;2023-12-20T11:15:50;9.60;3.13;
12542;PMS3003;6337;49.556;25.594;2023-12-20T11:18:19;3.10;2.60;
12542;PMS3003;6337;49.556;25.594;2023-12-20T11:20:48;3.17;2.70;
12542;PMS3003;6337;49.556;25.594;2023-12-20T11:23:20;4.73;2.50;
12542;PMS3003;6337;49.556;25.594;2023-12-20T11:25:47;5.50;4.03;
12542;PMS3003;6337;49.556;25.594;2023-12-20T11:28:15;5.73;3.53;
12542;PMS3003;6337;49.556;25.594;2023-12-20T11:30:46;7.80;3.20;
12542;PMS3003;6337;49.556;25.594;2023-12-20T11:33:15;8.40;4.10;
12542;PMS3003;6337;49.556;25.594;2023-12-20T11:35:46;11.30;3.40;
12542;PMS3003;6337;49.556;25.594;2023-12-20T11:38:14;3.70;2.60;
12542;PMS3003;6337;49.556;25.594;2023-12-20T11:40:47;4.30;3.00;
12542;PMS3003;6337;49.556;25.594;2023-12-20T11:47:10;10.97;2.77;
12542;PMS3003;6337;49.556;25.594;2023-12-20T11:49:58;3.97;3.60;
12542;PMS3003;6337;49.556;25.594;2023-12-20T11:52:37;2.10;2.00;
12542;PMS3003;6337;49.556;25.594;2023-12-20T11:55:07;7.07;3.33;
12542;PMS3003;6337;49.556;25.594;2023-12-20T11:57:35;6.27;3.73;
12542;PMS3003;6337;49.556;25.594;2023-12-20T12:00:05;7.83;3.23;
12542;PMS3003;6337;49.556;25.594;2023-12-20T12:06:04;6.33;4.10;
12542;PMS3003;6337;49.556;25.594;2023-12-20T12:08:35;5.87;3.40;
12542;PMS3003;6337;49.556;25.594;2023-12-20T12:11:03;7.77;4.70;
12542;PMS3003;6337;49.556;25.594;2023-12-20T12:13:42;7.43;3.90;
12542;PMS3003;6337;49.556;25.594;2023-12-20T12:16:10;6.33;4.20;
12542;PMS3003;6337;49.556;25.594;2023-12-20T12:18:40;8.10;4.97;
12542;PMS3003;6337;49.556;25.594;2023-12-20T12:21:08;7.30;4.40;
12542;PMS3003;6337;49.556;25.594;2023-12-20T12:23:41;7.97;4.40;
12542;PMS3003;6337;49.556;25.594;2023-12-20T12:26:14;8.83;5.33;
12542;PMS3003;6337;49.556;25.594;2023-12-20T12:28:42;11.80;5.10;
12542;PMS3003;6337;49.556;25.594;2023-12-20T12:31:12;8.70;5.13;
12542;PMS3003;6337;49.556;25.594;2023-12-20T12:33:40;9.90;4.30;
12542;PMS3003;6337;49.556;25.594;2023-12-20T12:36:14;7.33;3.60;
12542;PMS3003;6337;49.556;25.594;2023-12-20T12:41:31;21.03;7.50;
12542;PMS3003;6337;49.556;25.594;2023-12-20T12:43:59;7.03;5.23;
12542;PMS3003;6337;49.556;25.594;2023-12-20T12:46:28;8.97;5.30;
12542;PMS3003;6337;49.556;25.594;2023-12-20T12:48:59;4.87;4.43;
12542;PMS3003;6337;49.556;25.594;2023-12-20T12:51:27;9.60;5.70;
12542;PMS3003;6337;49.556;25.594;2023-12-20T12:53:55;23.13;6.23;
12542;PMS3003;6337;49.556;25.594;2023-12-20T12:56:25;10.53;5.30;
12542;PMS3003;6337;49.556;25.594;2023-12-20T12:58:54;15.73;5.10;
12542;PMS3003;6337;49.556;25.594;2023-12-20T13:01:22;16.60;6.53;
12542;PMS3003;6337;49.556;25.594;2023-12-20T13:03:53;15.63;8.00;
12542;PMS3003;6337;49.556;25.594;2023-12-20T13:06:20;11.90;7.40;
12542;PMS3003;6337;49.556;25.594;2023-12-20T13:08:48;17.90;8.67;
12542;PMS3003;6337;49.556;25.594;2023-12-20T13:11:15;21.07;9.77;
12542;PMS3003;6337;49.556;25.594;2023-12-20T13:13:45;17.20;9.00;
12542;PMS3003;6337;49.556;25.594;2023-12-20T13:16:13;15.73;8.60;
12542;PMS3003;6337;49.556;25.594;2023-12-20T13:18:47;24.67;8.67;
12542;PMS3003;6337;49.556;25.594;2023-12-20T13:21:16;22.03;9.83;
12542;PMS3003;6337;49.556;25.594;2023-12-20T13:23:46;36.30;18.10;
12542;PMS3003;6337;49.556;25.594;2023-12-20T13:26:14;28.73;14.50;
12542;PMS3003;6337;49.556;25.594;2023-12-20T13:28:47;29.00;14.60;
12542;PMS3003;6337;49.556;25.594;2023-12-20T13:31:14;39.40;18.00;
12542;PMS3003;6337;49.556;25.594;2023-12-20T13:33:42;31.50;16.47;
12542;PMS3003;6337;49.556;25.594;2023-12-20T13:36:09;33.73;17.03;
12542;PMS3003;6337;49.556;25.594;2023-12-20T13:38:40;29.70;14.13;
12542;PMS3003;6337;49.556;25.594;2023-12-20T13:41:07;30.67;14.27;
12542;PMS3003;6337;49.556;25.594;2023-12-20T13:43:35;35.20;12.10;
12542;PMS3003;6337;49.556;25.594;2023-12-20T13:46:04;16.17;10.50;
12542;PMS3003;6337;49.556;25.594;2023-12-20T13:48:32;26.13;13.07;
12542;PMS3003;6337;49.556;25.594;2023-12-20T13:51:00;21.93;12.40;
12542;PMS3003;6337;49.556;25.594;2023-12-20T13:53:29;22.80;10.70;
12542;PMS3003;6337;49.556;25.594;2023-12-20T13:55:56;31.20;11.70;
12542;PMS3003;6337;49.556;25.594;2023-12-20T13:58:29;22.60;10.27;
12542;PMS3003;6337;49.556;25.594;2023-12-20T14:01:13;25.23;10.43;
12542;PMS3003;6337;49.556;25.594;2023-12-20T14:03:42;22.83;11.83;
12542;PMS3003;6337;49.556;25.594;2023-12-20T14:06:09;19.10;11.33;
12542;PMS3003;6337;49.556;25.594;2023-12-20T14:08:38;20.17;12.97;
12542;PMS3003;6337;49.556;25.594;2023-12-20T14:11:08;27.00;12.50;
12542;PMS3003;6337;49.556;25.594;2023-12-20T14:13:35;21.97;13.03;
12542;PMS3003;6337;49.556;25.594;2023-12-20T14:16:04;51.27;16.20;
12542;PMS3003;6337;49.556;25.594;2023-12-20T14:18:35;18.60;11.03;
12542;PMS3003;6337;49.556;25.594;2023-12-20T14:21:07;22.07;9.43;
12542;PMS3003;6337;49.556;25.594;2023-12-20T14:23:36;12.27;6.93;
12542;PMS3003;6337;49.556;25.594;2023-12-20T14:26:04;10.20;6.63;
12542;PMS3003;6337;49.556;25.594;2023-12-20T14:28:40;9.30;6.23;
12542;PMS3003;6337;49.556;25.594;2023-12-20T14:31:09;19.47;10.03;
12542;PMS3003;6337;49.556;25.594;2023-12-20T14:33:39;22.87;11.97;
12542;PMS3003;6337;49.556;25.594;2023-12-20T14:36:08;43.43;21.10;
12542;PMS3003;6337;49.556;25.594;2023-12-20T14:38:35;50.30;25.53;
12542;PMS3003;6337;49.556;25.594;2023-12-20T14:41:08;56.07;27.13;
12542;PMS3003;6337;49.556;25.594;2023-12-20T14:43:35;47.50;24.37;
12542;PMS3003;6337;49.556;25.594;2023-12-20T14:46:04;34.47;19.30;
12542;PMS3003;6337;49.556;25.594;2023-12-20T14:48:36;32.00;18.20;
12542;PMS3003;6337;49.556;25.594;2023-12-20T14:51:06;26.40;14.17;
12542;PMS3003;6337;49.556;25.594;2023-12-20T14:53:35;22.53;11.70;
12542;PMS3003;6337;49.556;25.594;2023-12-20T14:56:03;16.70;10.73;
12542;PMS3003;6337;49.556;25.594;2023-12-20T14:58:34;22.40;10.83;
12542;PMS3003;6337;49.556;25.594;2023-12-20T15:01:02;21.00;12.40;
12542;PMS3003;6337;49.556;25.594;2023-12-20T15:03:34;26.73;14.30;
12542;PMS3003;6337;49.556;25.594;2023-12-20T15:06:01;23.00;14.80;
12542;PMS3003;6337;49.556;25.594;2023-12-20T15:08:39;28.70;14.90;
12542;PMS3003;6337;49.556;25.594;2023-12-20T15:11:07;41.43;18.17;
12542;PMS3003;6337;49.556;25.594;2023-12-20T15:13:35;37.30;17.47;
12542;PMS3003;6337;49.556;25.594;2023-12-20T15:16:04;44.70;20.77;
12542;PMS3003;6337;49.556;25.594;2023-12-20T15:18:36;36.67;18.33;
12542;PMS3003;6337;49.556;25.594;2023-12-20T15:21:04;37.87;19.17;
12542;PMS3003;6337;49.556;25.594;2023-12-20T15:23:33;37.03;18.17;
12542;PMS3003;6337;49.556;25.594;2023-12-20T15:26:01;20.03;10.87;
12542;PMS3003;6337;49.556;25.594;2023-12-20T15:28:36;15.90;10.30;
12542;PMS3003;6337;49.556;25.594;2023-12-20T15:31:05;16.07;10.17;
12542;PMS3003;6337;49.556;25.594;2023-12-20T15:33:36;14.50;8.77;
12542;PMS3003;6337;49.556;25.594;2023-12-20T15:36:04;13.50;9.67;
12542;PMS3003;6337;49.556;25.594;2023-12-20T15:38:34;18.23;12.53;
12542;PMS3003;6337;49.556;25.594;2023-12-20T15:41:03;13.70;8.83;
12542;PMS3003;6337;49.556;25.594;2023-12-20T15:43:31;16.77;10.27;
12542;PMS3003;6337;49.556;25.594;2023-12-20T15:45:59;24.90;10.10;
12542;PMS3003;6337;49.556;25.594;2023-12-20T15:48:29;17.03;9.93;
12542;PMS3003;6337;49.556;25.594;2023-12-20T15:51:04;14.63;9.40;
12542;PMS3003;6337;49.556;25.594;2023-12-20T15:53:35;13.03;8.00;
12542;PMS3003;6337;49.556;25.594;2023-12-20T15:56:03;16.37;9.53;
12542;PMS3003;6337;49.556;25.594;2023-12-20T15:58:33;21.77;8.67;
12542;PMS3003;6337;49.556;25.594;2023-12-20T16:01:00;15.23;8.83;
12542;PMS3003;6337;49.556;25.594;2023-12-20T16:03:30;14.30;9.23;
12542;PMS3003;6337;49.556;25.594;2023-12-20T16:06:08;10.30;7.40;
12542;PMS3003;6337;49.556;25.594;2023-12-20T16:08:37;12.00;7.07;
12542;PMS3003;6337;49.556;25.594;2023-12-20T16:11:09;13.77;7.10;
12542;PMS3003;6337;49.556;25.594;2023-12-20T16:13:41;13.20;7.87;
12542;PMS3003;6337;49.556;25.594;2023-12-20T16:16:10;19.60;8.30;
12542;PMS3003;6337;49.556;25.594;2023-12-20T16:18:54;9.50;7.60;
12542;PMS3003;6337;49.556;25.594;2023-12-20T16:34:36;13.70;7.90;
12542;PMS3003;6337;49.556;25.594;2023-12-20T16:37:09;10.67;6.93;
12542;PMS3003;6337;49.556;25.594;2023-12-20T16:42:27;11.83;5.30;
12542;PMS3003;6337;49.556;25.594;2023-12-20T16:45:34;10.50;5.70;
12542;PMS3003;6337;49.556;25.594;2023-12-20T16:48:21;8.00;5.00;
12542;PMS3003;6337;49.556;25.594;2023-12-20T17:24:53;4.77;3.97;
12542;PMS3003;6337;49.556;25.594;2023-12-20T17:27:33;6.57;4.77;
12542;PMS3003;6337;49.556;25.594;2023-12-20T18:58:51;4.50;4.20;
12542;PMS3003;6337;49.556;25.594;2023-12-20T19:01:24;4.83;4.27;
12542;PMS3003;6337;49.556;25.594;2023-12-20T19:04:11;4.87;4.47;
12542;PMS3003;6337;49.556;25.594;2023-12-20T19:18:14;7.03;5.40;
12542;PMS3003;6337;49.556;25.594;2023-12-20T19:20:42;5.30;4.90;
12542;PMS3003;6337;49.556;25.594;2023-12-20T19:23:17;7.40;6.70;
12542;PMS3003;6337;49.556;25.594;2023-12-20T19:25:45;5.83;5.23;
12542;PMS3003;6337;49.556;25.594;2023-12-20T19:28:14;7.20;5.97;
12542;PMS3003;6337;49.556;25.594;2023-12-20T19:30:43;7.00;6.30;
12542;PMS3003;6337;49.556;25.594;2023-12-20T19:33:12;7.37;5.20;
12542;PMS3003;6337;49.556;25.594;2023-12-20T19:35:56;10.87;7.20;
12542;PMS3003;6337;49.556;25.594;2023-12-20T19:38:39;9.40;5.97;
12542;PMS3003;6337;49.556;25.594;2023-12-20T19:41:07;9.20;6.60;